sensor_id;sensor_type;location;lat;lon;timestamp;temperature;humidity
52203;DHT22;38173;52.850;6.970;2023-04-25T00:01:55;6.10;99.90
52203;DHT22;38173;52.850;6.970;2023-04-25T00:04:22;6.10;99.90
52203;DHT22;38173;52.850;6.970;2023-04-25T00:06:48;6.10;99.90
52203;DHT22;38173;52.850;6.970;2023-04-25T00:09:14;6.00;99.90
52203;DHT22;38173;52.850;6.970;2023-04-25T00:11:40;6.00;99.90
52203;DHT22;38173;52.850;6.970;2023-04-25T00:14:06;6.10;99.90
52203;DHT22;38173;52.850;6.970;2023-04-25T00:16:32;6.00;99.90
52203;DHT22;38173;52.850;6.970;2023-04-25T00:19:00;6.00;99.90
52203;DHT22;38173;52.850;6.970;2023-04-25T00:21:26;6.10;99.90
52203;DHT22;38173;52.850;6.970;2023-04-25T00:23:53;6.10;99.90
52203;DHT22;38173;52.850;6.970;2023-04-25T00:26:19;6.00;99.90
52203;DHT22;38173;52.850;6.970;2023-04-25T00:28:46;6.00;99.90
52203;DHT22;38173;52.850;6.970;2023-04-25T00:31:12;5.90;99.90
52203;DHT22;38173;52.850;6.970;2023-04-25T00:33:38;5.90;99.90
52203;DHT22;38173;52.850;6.970;2023-04-25T00:36:03;5.80;99.90
52203;DHT22;38173;52.850;6.970;2023-04-25T00:38:29;5.70;99.90
52203;DHT22;38173;52.850;6.970;2023-04-25T00:40:55;5.70;99.90
52203;DHT22;38173;52.850;6.970;2023-04-25T00:43:21;5.60;99.90
52203;DHT22;38173;52.850;6.970;2023-04-25T00:45:46;5.50;99.90
52203;DHT22;38173;52.850;6.970;2023-04-25T00:48:13;5.50;99.90
52203;DHT22;38173;52.850;6.970;2023-04-25T00:50:39;5.40;99.90
52203;DHT22;38173;52.850;6.970;2023-04-25T00:53:05;5.40;99.90
52203;DHT22;38173;52.850;6.970;2023-04-25T00:55:32;5.40;99.90
52203;DHT22;38173;52.850;6.970;2023-04-25T00:57:59;5.30;99.90
52203;DHT22;38173;52.850;6.970;2023-04-25T01:00:25;5.30;99.90
52203;DHT22;38173;52.850;6.970;2023-04-25T01:02:51;5.20;99.90
52203;DHT22;38173;52.850;6.970;2023-04-25T01:05:17;5.20;99.90
52203;DHT22;38173;52.850;6.970;2023-04-25T01:07:44;5.20;99.90
52203;DHT22;38173;52.850;6.970;2023-04-25T01:10:10;5.10;99.90
52203;DHT22;38173;52.850;6.970;2023-04-25T01:12:36;5.10;99.90
52203;DHT22;38173;52.850;6.970;2023-04-25T01:15:01;5.10;99.90
52203;DHT22;38173;52.850;6.970;2023-04-25T01:17:27;5.10;99.90
52203;DHT22;38173;52.850;6.970;2023-04-25T01:19:53;5.10;99.90
52203;DHT22;38173;52.850;6.970;2023-04-25T01:22:18;5.10;99.90
52203;DHT22;38173;52.850;6.970;2023-04-25T01:24:44;5.10;99.90
52203;DHT22;38173;52.850;6.970;2023-04-25T01:27:10;5.10;99.90
52203;DHT22;38173;52.850;6.970;2023-04-25T01:29:36;5.10;99.90
52203;DHT22;38173;52.850;6.970;2023-04-25T01:32:02;5.00;99.90
52203;DHT22;38173;52.850;6.970;2023-04-25T01:34:28;5.00;99.90
52203;DHT22;38173;52.850;6.970;2023-04-25T01:36:54;4.90;99.90
52203;DHT22;38173;52.850;6.970;2023-04-25T01:39:20;4.90;99.90
52203;DHT22;38173;52.850;6.970;2023-04-25T01:41:46;4.90;99.90
52203;DHT22;38173;52.850;6.970;2023-04-25T01:44:13;4.90;99.90
52203;DHT22;38173;52.850;6.970;2023-04-25T01:46:38;4.90;99.90
52203;DHT22;38173;52.850;6.970;2023-04-25T01:49:04;4.90;99.90
52203;DHT22;38173;52.850;6.970;2023-04-25T01:51:30;4.80;99.90
52203;DHT22;38173;52.850;6.970;2023-04-25T01:53:55;4.80;99.90
52203;DHT22;38173;52.850;6.970;2023-04-25T01:56:22;4.70;99.90
52203;DHT22;38173;52.850;6.970;2023-04-25T01:58:47;4.70;99.90
52203;DHT22;38173;52.850;6.970;2023-04-25T02:01:13;4.60;99.90
52203;DHT22;38173;52.850;6.970;2023-04-25T02:03:39;4.60;99.90
52203;DHT22;38173;52.850;6.970;2023-04-25T02:06:05;4.60;99.90
52203;DHT22;38173;52.850;6.970;2023-04-25T02:08:31;4.60;99.90
52203;DHT22;38173;52.850;6.970;2023-04-25T02:10:57;4.50;99.90
52203;DHT22;38173;52.850;6.970;2023-04-25T02:13:23;4.50;99.90
52203;DHT22;38173;52.850;6.970;2023-04-25T02:15:48;4.50;99.90
52203;DHT22;38173;52.850;6.970;2023-04-25T02:18:14;4.50;99.90
52203;DHT22;38173;52.850;6.970;2023-04-25T02:20:42;4.50;99.90
52203;DHT22;38173;52.850;6.970;2023-04-25T02:23:07;4.50;99.90
52203;DHT22;38173;52.850;6.970;2023-04-25T02:25:33;4.50;99.90
52203;DHT22;38173;52.850;6.970;2023-04-25T02:27:59;4.50;99.90
52203;DHT22;38173;52.850;6.970;2023-04-25T02:30:25;4.60;99.90
52203;DHT22;38173;52.850;6.970;2023-04-25T02:32:51;4.60;99.90
52203;DHT22;38173;52.850;6.970;2023-04-25T02:35:16;4.60;99.90
52203;DHT22;38173;52.850;6.970;2023-04-25T02:37:42;4.60;99.90
52203;DHT22;38173;52.850;6.970;2023-04-25T02:40:08;4.60;99.90
52203;DHT22;38173;52.850;6.970;2023-04-25T02:42:33;4.70;99.90
52203;DHT22;38173;52.850;6.970;2023-04-25T02:44:59;4.60;99.90
52203;DHT22;38173;52.850;6.970;2023-04-25T02:47:25;4.70;99.90
52203;DHT22;38173;52.850;6.970;2023-04-25T02:49:50;4.70;99.90
52203;DHT22;38173;52.850;6.970;2023-04-25T02:52:16;4.70;99.90
52203;DHT22;38173;52.850;6.970;2023-04-25T02:54:42;4.70;99.90
52203;DHT22;38173;52.850;6.970;2023-04-25T02:57:07;4.70;99.90
52203;DHT22;38173;52.850;6.970;2023-04-25T02:59:33;4.70;99.90
52203;DHT22;38173;52.850;6.970;2023-04-25T03:01:59;4.80;99.90
52203;DHT22;38173;52.850;6.970;2023-04-25T03:04:24;4.80;99.90
52203;DHT22;38173;52.850;6.970;2023-04-25T03:06:50;4.70;99.90
52203;DHT22;38173;52.850;6.970;2023-04-25T03:09:16;4.80;99.90
52203;DHT22;38173;52.850;6.970;2023-04-25T03:11:42;4.70;99.90
52203;DHT22;38173;52.850;6.970;2023-04-25T03:14:07;4.80;99.90
52203;DHT22;38173;52.850;6.970;2023-04-25T03:16:33;4.70;99.90
52203;DHT22;38173;52.850;6.970;2023-04-25T03:18:59;4.70;99.90
52203;DHT22;38173;52.850;6.970;2023-04-25T03:21:24;4.80;99.90
52203;DHT22;38173;52.850;6.970;2023-04-25T03:23:50;4.70;99.90
52203;DHT22;38173;52.850;6.970;2023-04-25T03:26:16;4.80;99.90
52203;DHT22;38173;52.850;6.970;2023-04-25T03:28:41;4.80;99.90
52203;DHT22;38173;52.850;6.970;2023-04-25T03:31:07;4.80;99.90
52203;DHT22;38173;52.850;6.970;2023-04-25T03:33:32;4.80;99.90
52203;DHT22;38173;52.850;6.970;2023-04-25T03:35:58;4.80;99.90
52203;DHT22;38173;52.850;6.970;2023-04-25T03:38:24;4.80;99.90
52203;DHT22;38173;52.850;6.970;2023-04-25T03:40:50;4.70;99.90
52203;DHT22;38173;52.850;6.970;2023-04-25T03:43:16;4.80;99.90
52203;DHT22;38173;52.850;6.970;2023-04-25T03:45:41;4.80;99.90
52203;DHT22;38173;52.850;6.970;2023-04-25T03:48:07;4.80;99.90
52203;DHT22;38173;52.850;6.970;2023-04-25T03:50:33;4.80;99.90
52203;DHT22;38173;52.850;6.970;2023-04-25T03:52:58;4.80;99.90
52203;DHT22;38173;52.850;6.970;2023-04-25T03:55:24;4.80;99.90
52203;DHT22;38173;52.850;6.970;2023-04-25T03:57:50;4.80;99.90
52203;DHT22;38173;52.850;6.970;2023-04-25T04:00:15;4.80;99.90
52203;DHT22;38173;52.850;6.970;2023-04-25T04:02:41;4.80;99.90
52203;DHT22;38173;52.850;6.970;2023-04-25T04:05:07;4.80;99.90
52203;DHT22;38173;52.850;6.970;2023-04-25T04:07:36;4.80;99.90
52203;DHT22;38173;52.850;6.970;2023-04-25T04:10:06;4.80;99.90
52203;DHT22;38173;52.850;6.970;2023-04-25T04:12:32;4.80;99.90
52203;DHT22;38173;52.850;6.970;2023-04-25T04:14:57;4.80;99.90
52203;DHT22;38173;52.850;6.970;2023-04-25T04:17:23;4.80;99.90
52203;DHT22;38173;52.850;6.970;2023-04-25T04:19:48;4.80;99.90
52203;DHT22;38173;52.850;6.970;2023-04-25T04:22:14;4.80;99.90
52203;DHT22;38173;52.850;6.970;2023-04-25T04:24:40;4.80;99.90
52203;DHT22;38173;52.850;6.970;2023-04-25T04:27:09;4.80;99.90
52203;DHT22;38173;52.850;6.970;2023-04-25T04:29:35;4.80;99.90
52203;DHT22;38173;52.850;6.970;2023-04-25T04:32:02;4.80;99.90
52203;DHT22;38173;52.850;6.970;2023-04-25T04:34:27;4.80;99.90
52203;DHT22;38173;52.850;6.970;2023-04-25T04:36:53;4.70;99.90
52203;DHT22;38173;52.850;6.970;2023-04-25T04:39:19;4.80;99.90
52203;DHT22;38173;52.850;6.970;2023-04-25T04:41:44;4.80;99.90
52203;DHT22;38173;52.850;6.970;2023-04-25T04:44:10;4.80;99.90
52203;DHT22;38173;52.850;6.970;2023-04-25T04:46:36;4.80;99.90
52203;DHT22;38173;52.850;6.970;2023-04-25T04:49:10;4.80;99.90
52203;DHT22;38173;52.850;6.970;2023-04-25T04:51:36;4.80;99.90
52203;DHT22;38173;52.850;6.970;2023-04-25T04:54:02;4.80;99.90
52203;DHT22;38173;52.850;6.970;2023-04-25T04:56:31;4.80;99.90
52203;DHT22;38173;52.850;6.970;2023-04-25T04:58:57;4.70;99.90
52203;DHT22;38173;52.850;6.970;2023-04-25T05:01:23;4.70;99.90
52203;DHT22;38173;52.850;6.970;2023-04-25T05:03:49;4.60;99.90
52203;DHT22;38173;52.850;6.970;2023-04-25T05:06:16;4.60;99.90
52203;DHT22;38173;52.850;6.970;2023-04-25T05:08:41;4.60;99.90
52203;DHT22;38173;52.850;6.970;2023-04-25T05:11:07;4.60;99.90
52203;DHT22;38173;52.850;6.970;2023-04-25T05:13:33;4.60;99.90
52203;DHT22;38173;52.850;6.970;2023-04-25T05:15:58;4.70;99.90
52203;DHT22;38173;52.850;6.970;2023-04-25T05:18:24;4.70;99.90
52203;DHT22;38173;52.850;6.970;2023-04-25T05:20:50;4.70;99.90
52203;DHT22;38173;52.850;6.970;2023-04-25T05:23:15;4.80;99.90
52203;DHT22;38173;52.850;6.970;2023-04-25T05:25:41;4.80;99.90
52203;DHT22;38173;52.850;6.970;2023-04-25T05:28:07;4.80;99.90
52203;DHT22;38173;52.850;6.970;2023-04-25T05:30:33;4.80;99.90
52203;DHT22;38173;52.850;6.970;2023-04-25T05:32:59;4.80;99.90
52203;DHT22;38173;52.850;6.970;2023-04-25T05:35:26;4.80;99.90
52203;DHT22;38173;52.850;6.970;2023-04-25T05:37:52;4.80;99.90
52203;DHT22;38173;52.850;6.970;2023-04-25T05:40:21;4.80;99.90
52203;DHT22;38173;52.850;6.970;2023-04-25T05:42:46;4.80;99.90
52203;DHT22;38173;52.850;6.970;2023-04-25T05:45:12;4.80;99.90
52203;DHT22;38173;52.850;6.970;2023-04-25T05:47:38;4.90;99.90
52203;DHT22;38173;52.850;6.970;2023-04-25T05:50:04;4.90;99.90
52203;DHT22;38173;52.850;6.970;2023-04-25T05:52:30;5.00;99.90
52203;DHT22;38173;52.850;6.970;2023-04-25T05:54:55;5.00;99.90
52203;DHT22;38173;52.850;6.970;2023-04-25T05:57:24;5.10;99.90
52203;DHT22;38173;52.850;6.970;2023-04-25T05:59:50;5.20;99.90
52203;DHT22;38173;52.850;6.970;2023-04-25T06:02:16;5.20;99.90
52203;DHT22;38173;52.850;6.970;2023-04-25T06:04:41;5.40;99.90
52203;DHT22;38173;52.850;6.970;2023-04-25T06:07:07;5.40;99.90
52203;DHT22;38173;52.850;6.970;2023-04-25T06:09:33;5.40;99.90
52203;DHT22;38173;52.850;6.970;2023-04-25T06:11:59;5.40;99.90
52203;DHT22;38173;52.850;6.970;2023-04-25T06:14:25;5.40;99.90
52203;DHT22;38173;52.850;6.970;2023-04-25T06:16:50;5.40;99.90
52203;DHT22;38173;52.850;6.970;2023-04-25T06:19:16;5.50;99.90
52203;DHT22;38173;52.850;6.970;2023-04-25T06:21:43;5.50;99.90
52203;DHT22;38173;52.850;6.970;2023-04-25T06:24:09;5.50;99.90
52203;DHT22;38173;52.850;6.970;2023-04-25T06:26:34;5.50;99.90
52203;DHT22;38173;52.850;6.970;2023-04-25T06:29:00;5.60;99.90
52203;DHT22;38173;52.850;6.970;2023-04-25T06:31:26;5.60;99.90
52203;DHT22;38173;52.850;6.970;2023-04-25T06:33:51;5.70;99.90
52203;DHT22;38173;52.850;6.970;2023-04-25T06:36:20;5.70;99.90
52203;DHT22;38173;52.850;6.970;2023-04-25T06:38:50;5.80;99.90
52203;DHT22;38173;52.850;6.970;2023-04-25T06:41:17;5.90;99.90
52203;DHT22;38173;52.850;6.970;2023-04-25T06:43:42;6.00;99.90
52203;DHT22;38173;52.850;6.970;2023-04-25T06:46:08;6.00;99.90
52203;DHT22;38173;52.850;6.970;2023-04-25T06:48:34;6.10;99.90
52203;DHT22;38173;52.850;6.970;2023-04-25T06:50:59;6.20;99.90
52203;DHT22;38173;52.850;6.970;2023-04-25T06:53:25;6.30;99.90
52203;DHT22;38173;52.850;6.970;2023-04-25T06:55:50;6.40;99.90
52203;DHT22;38173;52.850;6.970;2023-04-25T06:58:16;6.40;99.90
52203;DHT22;38173;52.850;6.970;2023-04-25T07:00:42;6.50;99.90
52203;DHT22;38173;52.850;6.970;2023-04-25T07:03:07;6.50;99.90
52203;DHT22;38173;52.850;6.970;2023-04-25T07:05:33;6.60;99.90
52203;DHT22;38173;52.850;6.970;2023-04-25T07:07:59;6.60;99.90
52203;DHT22;38173;52.850;6.970;2023-04-25T07:10:25;6.70;99.90
52203;DHT22;38173;52.850;6.970;2023-04-25T07:12:51;6.90;99.90
52203;DHT22;38173;52.850;6.970;2023-04-25T07:15:17;7.00;99.90
52203;DHT22;38173;52.850;6.970;2023-04-25T07:17:42;7.20;99.90
52203;DHT22;38173;52.850;6.970;2023-04-25T07:20:08;7.20;99.90
52203;DHT22;38173;52.850;6.970;2023-04-25T07:22:34;7.30;99.90
52203;DHT22;38173;52.850;6.970;2023-04-25T07:25:00;7.30;99.90
52203;DHT22;38173;52.850;6.970;2023-04-25T07:27:26;7.40;99.90
52203;DHT22;38173;52.850;6.970;2023-04-25T07:29:51;7.50;99.90
52203;DHT22;38173;52.850;6.970;2023-04-25T07:32:19;7.70;99.90
52203;DHT22;38173;52.850;6.970;2023-04-25T07:34:45;7.90;99.90
52203;DHT22;38173;52.850;6.970;2023-04-25T07:37:10;8.10;99.90
52203;DHT22;38173;52.850;6.970;2023-04-25T07:39:36;8.30;99.90
52203;DHT22;38173;52.850;6.970;2023-04-25T07:42:02;8.30;99.90
52203;DHT22;38173;52.850;6.970;2023-04-25T07:44:29;8.30;99.90
52203;DHT22;38173;52.850;6.970;2023-04-25T07:46:55;8.20;99.90
52203;DHT22;38173;52.850;6.970;2023-04-25T07:49:21;7.90;99.90
52203;DHT22;38173;52.850;6.970;2023-04-25T07:51:47;7.70;99.90
52203;DHT22;38173;52.850;6.970;2023-04-25T07:54:13;7.60;99.90
52203;DHT22;38173;52.850;6.970;2023-04-25T07:56:39;7.50;99.90
52203;DHT22;38173;52.850;6.970;2023-04-25T07:59:05;7.50;99.90
52203;DHT22;38173;52.850;6.970;2023-04-25T08:01:30;7.50;99.90
52203;DHT22;38173;52.850;6.970;2023-04-25T08:03:56;7.40;99.90
52203;DHT22;38173;52.850;6.970;2023-04-25T08:06:21;7.40;99.90
52203;DHT22;38173;52.850;6.970;2023-04-25T08:08:47;7.40;99.90
52203;DHT22;38173;52.850;6.970;2023-04-25T08:11:13;7.30;99.90
52203;DHT22;38173;52.850;6.970;2023-04-25T08:13:38;7.30;99.90
52203;DHT22;38173;52.850;6.970;2023-04-25T08:16:04;7.20;99.90
52203;DHT22;38173;52.850;6.970;2023-04-25T08:18:29;7.20;99.90
52203;DHT22;38173;52.850;6.970;2023-04-25T08:20:56;7.00;99.90
52203;DHT22;38173;52.850;6.970;2023-04-25T08:23:22;6.90;99.90
52203;DHT22;38173;52.850;6.970;2023-04-25T08:25:47;6.70;99.90
52203;DHT22;38173;52.850;6.970;2023-04-25T08:28:14;6.70;99.90
52203;DHT22;38173;52.850;6.970;2023-04-25T08:30:43;6.70;99.90
52203;DHT22;38173;52.850;6.970;2023-04-25T08:33:09;6.90;99.90
52203;DHT22;38173;52.850;6.970;2023-04-25T08:35:39;7.30;99.90
52203;DHT22;38173;52.850;6.970;2023-04-25T08:38:04;7.70;99.90
52203;DHT22;38173;52.850;6.970;2023-04-25T08:40:30;8.10;99.90
52203;DHT22;38173;52.850;6.970;2023-04-25T08:43:00;8.40;99.90
52203;DHT22;38173;52.850;6.970;2023-04-25T08:45:26;8.60;99.90
52203;DHT22;38173;52.850;6.970;2023-04-25T08:47:53;8.60;99.90
52203;DHT22;38173;52.850;6.970;2023-04-25T08:50:19;8.50;99.90
52203;DHT22;38173;52.850;6.970;2023-04-25T08:52:47;8.40;99.90
52203;DHT22;38173;52.850;6.970;2023-04-25T08:55:15;8.40;99.90
52203;DHT22;38173;52.850;6.970;2023-04-25T08:57:41;8.40;99.90
52203;DHT22;38173;52.850;6.970;2023-04-25T09:00:10;8.30;99.90
52203;DHT22;38173;52.850;6.970;2023-04-25T09:02:38;8.10;99.90
52203;DHT22;38173;52.850;6.970;2023-04-25T09:05:04;8.00;99.90
52203;DHT22;38173;52.850;6.970;2023-04-25T09:07:32;7.90;99.90
52203;DHT22;38173;52.850;6.970;2023-04-25T09:09:58;7.90;99.90
52203;DHT22;38173;52.850;6.970;2023-04-25T09:12:27;8.00;99.90
52203;DHT22;38173;52.850;6.970;2023-04-25T09:15:02;8.10;99.90
52203;DHT22;38173;52.850;6.970;2023-04-25T09:17:28;8.40;99.90
52203;DHT22;38173;52.850;6.970;2023-04-25T09:19:54;8.70;99.90
52203;DHT22;38173;52.850;6.970;2023-04-25T09:22:19;8.80;99.90
52203;DHT22;38173;52.850;6.970;2023-04-25T09:24:48;8.90;99.90
52203;DHT22;38173;52.850;6.970;2023-04-25T09:27:19;8.90;99.90
52203;DHT22;38173;52.850;6.970;2023-04-25T09:29:45;8.90;99.90
52203;DHT22;38173;52.850;6.970;2023-04-25T09:34:42;8.40;99.90
52203;DHT22;38173;52.850;6.970;2023-04-25T09:37:11;8.20;99.90
52203;DHT22;38173;52.850;6.970;2023-04-25T09:39:37;8.00;99.90
52203;DHT22;38173;52.850;6.970;2023-04-25T09:42:06;7.90;99.90
52203;DHT22;38173;52.850;6.970;2023-04-25T09:44:32;7.90;99.90
52203;DHT22;38173;52.850;6.970;2023-04-25T09:46:57;7.90;99.90
52203;DHT22;38173;52.850;6.970;2023-04-25T09:49:25;8.20;99.90
52203;DHT22;38173;52.850;6.970;2023-04-25T09:51:57;8.50;99.90
52203;DHT22;38173;52.850;6.970;2023-04-25T09:54:23;8.70;99.90
52203;DHT22;38173;52.850;6.970;2023-04-25T09:56:50;8.70;99.90
52203;DHT22;38173;52.850;6.970;2023-04-25T09:59:16;8.90;99.90
52203;DHT22;38173;52.850;6.970;2023-04-25T10:01:43;9.00;99.90
52203;DHT22;38173;52.850;6.970;2023-04-25T10:04:10;9.00;99.90
52203;DHT22;38173;52.850;6.970;2023-04-25T10:06:36;8.90;99.90
52203;DHT22;38173;52.850;6.970;2023-04-25T10:09:02;8.70;99.90
52203;DHT22;38173;52.850;6.970;2023-04-25T10:11:29;8.50;99.90
52203;DHT22;38173;52.850;6.970;2023-04-25T10:13:56;8.50;99.90
52203;DHT22;38173;52.850;6.970;2023-04-25T10:16:21;8.70;99.90
52203;DHT22;38173;52.850;6.970;2023-04-25T10:18:47;8.70;99.90
52203;DHT22;38173;52.850;6.970;2023-04-25T10:21:16;8.80;99.90
52203;DHT22;38173;52.850;6.970;2023-04-25T10:23:43;9.00;99.90
52203;DHT22;38173;52.850;6.970;2023-04-25T10:26:09;9.20;99.90
52203;DHT22;38173;52.850;6.970;2023-04-25T10:31:23;9.90;99.90
52203;DHT22;38173;52.850;6.970;2023-04-25T10:33:48;10.30;99.90
52203;DHT22;38173;52.850;6.970;2023-04-25T10:36:17;10.50;99.90
52203;DHT22;38173;52.850;6.970;2023-04-25T10:38:43;10.20;99.90
52203;DHT22;38173;52.850;6.970;2023-04-25T10:41:09;9.80;99.90
52203;DHT22;38173;52.850;6.970;2023-04-25T10:43:41;9.30;99.90
52203;DHT22;38173;52.850;6.970;2023-04-25T10:48:38;8.70;99.90
52203;DHT22;38173;52.850;6.970;2023-04-25T10:51:15;8.40;99.90
52203;DHT22;38173;52.850;6.970;2023-04-25T10:53:41;8.00;99.90
52203;DHT22;38173;52.850;6.970;2023-04-25T10:56:12;7.90;99.90
52203;DHT22;38173;52.850;6.970;2023-04-25T10:58:42;7.90;99.90
52203;DHT22;38173;52.850;6.970;2023-04-25T11:01:08;8.10;99.90
52203;DHT22;38173;52.850;6.970;2023-04-25T11:03:37;8.30;99.90
52203;DHT22;38173;52.850;6.970;2023-04-25T11:06:03;8.60;99.90
52203;DHT22;38173;52.850;6.970;2023-04-25T11:08:34;8.90;99.90
52203;DHT22;38173;52.850;6.970;2023-04-25T11:11:02;9.10;99.90
52203;DHT22;38173;52.850;6.970;2023-04-25T11:13:29;9.20;99.90
52203;DHT22;38173;52.850;6.970;2023-04-25T11:15:55;9.40;99.90
52203;DHT22;38173;52.850;6.970;2023-04-25T11:18:20;9.60;99.90
52203;DHT22;38173;52.850;6.970;2023-04-25T11:20:49;9.80;99.90
52203;DHT22;38173;52.850;6.970;2023-04-25T11:23:18;10.10;99.90
52203;DHT22;38173;52.850;6.970;2023-04-25T11:25:44;10.50;99.90
52203;DHT22;38173;52.850;6.970;2023-04-25T11:28:10;10.60;99.90
52203;DHT22;38173;52.850;6.970;2023-04-25T11:30:35;10.50;99.90
52203;DHT22;38173;52.850;6.970;2023-04-25T11:33:01;10.30;99.90
52203;DHT22;38173;52.850;6.970;2023-04-25T11:35:28;10.00;99.90
52203;DHT22;38173;52.850;6.970;2023-04-25T11:37:54;9.80;99.90
52203;DHT22;38173;52.850;6.970;2023-04-25T11:40:20;9.60;99.90
52203;DHT22;38173;52.850;6.970;2023-04-25T11:42:46;9.40;99.90
52203;DHT22;38173;52.850;6.970;2023-04-25T11:45:12;9.50;99.90
52203;DHT22;38173;52.850;6.970;2023-04-25T11:47:38;9.80;99.90
52203;DHT22;38173;52.850;6.970;2023-04-25T11:50:05;10.00;99.90
52203;DHT22;38173;52.850;6.970;2023-04-25T11:52:37;10.10;99.90
52203;DHT22;38173;52.850;6.970;2023-04-25T11:55:07;10.20;99.90
52203;DHT22;38173;52.850;6.970;2023-04-25T11:57:33;10.20;99.90
52203;DHT22;38173;52.850;6.970;2023-04-25T12:00:10;10.30;99.90
52203;DHT22;38173;52.850;6.970;2023-04-25T12:02:57;10.30;99.90
52203;DHT22;38173;52.850;6.970;2023-04-25T12:05:24;10.20;99.90
52203;DHT22;38173;52.850;6.970;2023-04-25T12:07:50;10.00;99.90
52203;DHT22;38173;52.850;6.970;2023-04-25T12:10:17;10.10;99.90
52203;DHT22;38173;52.850;6.970;2023-04-25T12:12:43;10.40;99.90
52203;DHT22;38173;52.850;6.970;2023-04-25T12:15:13;10.50;99.90
52203;DHT22;38173;52.850;6.970;2023-04-25T12:17:45;10.60;99.90
52203;DHT22;38173;52.850;6.970;2023-04-25T12:20:14;10.80;99.90
52203;DHT22;38173;52.850;6.970;2023-04-25T12:22:41;10.80;99.90
52203;DHT22;38173;52.850;6.970;2023-04-25T12:25:10;10.90;99.90
52203;DHT22;38173;52.850;6.970;2023-04-25T12:27:36;10.60;99.90
52203;DHT22;38173;52.850;6.970;2023-04-25T12:30:02;10.40;99.90
52203;DHT22;38173;52.850;6.970;2023-04-25T12:32:29;10.40;99.90
52203;DHT22;38173;52.850;6.970;2023-04-25T12:34:54;10.10;99.90
52203;DHT22;38173;52.850;6.970;2023-04-25T12:37:21;10.10;99.90
52203;DHT22;38173;52.850;6.970;2023-04-25T12:39:47;10.30;99.90
52203;DHT22;38173;52.850;6.970;2023-04-25T12:42:16;10.60;99.90
52203;DHT22;38173;52.850;6.970;2023-04-25T12:44:41;11.00;99.90
52203;DHT22;38173;52.850;6.970;2023-04-25T12:47:08;11.10;99.90
52203;DHT22;38173;52.850;6.970;2023-04-25T12:49:37;11.20;99.90
52203;DHT22;38173;52.850;6.970;2023-04-25T12:52:02;10.80;99.90
52203;DHT22;38173;52.850;6.970;2023-04-25T12:54:28;10.30;99.90
52203;DHT22;38173;52.850;6.970;2023-04-25T12:56:54;10.10;99.90
52203;DHT22;38173;52.850;6.970;2023-04-25T12:59:20;9.90;99.90
52203;DHT22;38173;52.850;6.970;2023-04-25T13:01:46;10.30;99.90
52203;DHT22;38173;52.850;6.970;2023-04-25T13:04:12;10.90;99.90
52203;DHT22;38173;52.850;6.970;2023-04-25T13:06:38;11.40;99.90
52203;DHT22;38173;52.850;6.970;2023-04-25T13:09:03;11.90;99.90
52203;DHT22;38173;52.850;6.970;2023-04-25T13:11:29;12.40;99.90
52203;DHT22;38173;52.850;6.970;2023-04-25T13:13:56;13.00;99.90
52203;DHT22;38173;52.850;6.970;2023-04-25T13:16:28;13.10;99.50
52203;DHT22;38173;52.850;6.970;2023-04-25T13:18:54;12.70;99.90
52203;DHT22;38173;52.850;6.970;2023-04-25T13:21:21;12.10;99.90
52203;DHT22;38173;52.850;6.970;2023-04-25T13:23:47;11.60;99.90
52203;DHT22;38173;52.850;6.970;2023-04-25T13:26:12;11.40;99.90
52203;DHT22;38173;52.850;6.970;2023-04-25T13:28:41;11.40;99.90
52203;DHT22;38173;52.850;6.970;2023-04-25T13:31:07;11.70;99.90
52203;DHT22;38173;52.850;6.970;2023-04-25T13:33:33;11.80;99.90
52203;DHT22;38173;52.850;6.970;2023-04-25T13:36:00;12.20;99.90
52203;DHT22;38173;52.850;6.970;2023-04-25T13:38:25;12.30;99.90
52203;DHT22;38173;52.850;6.970;2023-04-25T13:40:52;12.80;99.90
52203;DHT22;38173;52.850;6.970;2023-04-25T13:43:18;12.60;97.50
52203;DHT22;38173;52.850;6.970;2023-04-25T13:45:44;12.00;99.20
52203;DHT22;38173;52.850;6.970;2023-04-25T13:48:10;11.40;99.40
52203;DHT22;38173;52.850;6.970;2023-04-25T13:50:35;10.50;99.90
52203;DHT22;38173;52.850;6.970;2023-04-25T13:53:01;10.10;99.90
52203;DHT22;38173;52.850;6.970;2023-04-25T13:55:27;9.80;99.90
52203;DHT22;38173;52.850;6.970;2023-04-25T13:57:53;10.20;99.90
52203;DHT22;38173;52.850;6.970;2023-04-25T14:00:18;11.40;99.90
52203;DHT22;38173;52.850;6.970;2023-04-25T14:02:45;12.50;99.90
52203;DHT22;38173;52.850;6.970;2023-04-25T14:05:11;12.50;99.80
52203;DHT22;38173;52.850;6.970;2023-04-25T14:07:36;12.00;99.90
52203;DHT22;38173;52.850;6.970;2023-04-25T14:10:03;11.30;99.90
52203;DHT22;38173;52.850;6.970;2023-04-25T14:12:30;10.60;99.90
52203;DHT22;38173;52.850;6.970;2023-04-25T14:14:55;9.90;99.90
52203;DHT22;38173;52.850;6.970;2023-04-25T14:17:21;9.40;99.90
52203;DHT22;38173;52.850;6.970;2023-04-25T14:19:47;9.00;99.90
52203;DHT22;38173;52.850;6.970;2023-04-25T14:22:13;8.70;99.90
52203;DHT22;38173;52.850;6.970;2023-04-25T14:24:39;8.70;99.90
52203;DHT22;38173;52.850;6.970;2023-04-25T14:27:08;8.70;99.90
52203;DHT22;38173;52.850;6.970;2023-04-25T14:29:36;8.80;99.90
52203;DHT22;38173;52.850;6.970;2023-04-25T14:32:01;8.90;99.90
52203;DHT22;38173;52.850;6.970;2023-04-25T14:34:27;9.30;99.90
52203;DHT22;38173;52.850;6.970;2023-04-25T14:36:53;9.50;99.90
52203;DHT22;38173;52.850;6.970;2023-04-25T14:39:19;9.50;99.90
52203;DHT22;38173;52.850;6.970;2023-04-25T14:41:45;9.30;99.90
52203;DHT22;38173;52.850;6.970;2023-04-25T14:44:11;9.10;99.90
52203;DHT22;38173;52.850;6.970;2023-04-25T14:46:40;8.70;99.90
52203;DHT22;38173;52.850;6.970;2023-04-25T14:49:08;8.00;99.90
52203;DHT22;38173;52.850;6.970;2023-04-25T14:51:34;7.50;99.90
52203;DHT22;38173;52.850;6.970;2023-04-25T14:54:00;7.20;99.90
52203;DHT22;38173;52.850;6.970;2023-04-25T14:56:25;6.90;99.90
52203;DHT22;38173;52.850;6.970;2023-04-25T14:58:53;6.90;99.90
52203;DHT22;38173;52.850;6.970;2023-04-25T15:01:19;7.00;99.90
52203;DHT22;38173;52.850;6.970;2023-04-25T15:03:47;7.30;99.90
52203;DHT22;38173;52.850;6.970;2023-04-25T15:06:13;7.80;99.90
52203;DHT22;38173;52.850;6.970;2023-04-25T15:08:39;8.60;99.90
52203;DHT22;38173;52.850;6.970;2023-04-25T15:11:05;9.20;99.90
52203;DHT22;38173;52.850;6.970;2023-04-25T15:13:30;9.80;99.90
52203;DHT22;38173;52.850;6.970;2023-04-25T15:15:56;10.30;99.90
52203;DHT22;38173;52.850;6.970;2023-04-25T15:18:22;11.10;99.90
52203;DHT22;38173;52.850;6.970;2023-04-25T15:20:52;12.30;99.90
52203;DHT22;38173;52.850;6.970;2023-04-25T15:23:18;13.80;99.90
52203;DHT22;38173;52.850;6.970;2023-04-25T15:25:44;15.10;95.90
52203;DHT22;38173;52.850;6.970;2023-04-25T15:28:14;16.10;93.50
52203;DHT22;38173;52.850;6.970;2023-04-25T15:30:41;16.10;91.60
52203;DHT22;38173;52.850;6.970;2023-04-25T15:33:07;14.90;93.20
52203;DHT22;38173;52.850;6.970;2023-04-25T15:35:33;13.70;92.80
52203;DHT22;38173;52.850;6.970;2023-04-25T15:37:58;13.40;93.70
52203;DHT22;38173;52.850;6.970;2023-04-25T15:40:24;13.60;92.50
52203;DHT22;38173;52.850;6.970;2023-04-25T15:42:50;14.30;94.10
52203;DHT22;38173;52.850;6.970;2023-04-25T15:45:16;15.00;91.80